Mescalero Apache Indian Rese, New Mexico
Current Conditions -  °F | °C
As of 7:15 AM on Thursday 18 Dec 2014 (Local Time) from KSRR Reporting Station
Clear Clear  
Wind Chill: 23°   Ceiling: Unl
Heat Index: 30°   Visibility: 10mi
Dew Point: 27°   Wind: 8mph
Humidity: 86%   Direction: 80°E
Pressure: 30.13"   Gusts: NA
Location:  33.1783°N, 105.612°W
Report Text: KSRR 181415Z AUTO 08007KT 10SM CLR M01/M03 A3013 RMK AO2
Loading
Personal Weather Stations






























Interactive Weather Map New forecast layout! Learn more

10-Day Weather Forecast

Advertisements
Track Severe Weather on mobile